sensor_id;sensor_type;location;lat;lon;timestamp;P1;durP1;ratioP1;P2;durP2;ratioP2
44102;SDS011;29769;42.178;24.742;2023-04-24T00:03:29;22.88;;;8.77;;
44102;SDS011;29769;42.178;24.742;2023-04-24T00:06:14;11.13;;;7.80;;
44102;SDS011;29769;42.178;24.742;2023-04-24T00:09:01;16.02;;;8.13;;
44102;SDS011;29769;42.178;24.742;2023-04-24T00:11:46;18.73;;;8.55;;
44102;SDS011;29769;42.178;24.742;2023-04-24T00:14:31;16.50;;;8.38;;
44102;SDS011;29769;42.178;24.742;2023-04-24T00:17:16;15.23;;;8.57;;
44102;SDS011;29769;42.178;24.742;2023-04-24T00:20:04;17.55;;;8.90;;
44102;SDS011;29769;42.178;24.742;2023-04-24T00:22:51;18.13;;;9.20;;
44102;SDS011;29769;42.178;24.742;2023-04-24T00:25:36;37.75;;;10.30;;
44102;SDS011;29769;42.178;24.742;2023-04-24T00:28:20;13.43;;;9.02;;
44102;SDS011;29769;42.178;24.742;2023-04-24T00:31:05;15.98;;;8.48;;
44102;SDS011;29769;42.178;24.742;2023-04-24T00:36:35;17.85;;;9.52;;
44102;SDS011;29769;42.178;24.742;2023-04-24T00:39:20;32.80;;;11.52;;
44102;SDS011;29769;42.178;24.742;2023-04-24T00:42:07;23.85;;;10.15;;
44102;SDS011;29769;42.178;24.742;2023-04-24T00:44:52;13.02;;;9.20;;
44102;SDS011;29769;42.178;24.742;2023-04-24T00:47:38;16.38;;;9.07;;
44102;SDS011;29769;42.178;24.742;2023-04-24T00:50:23;14.80;;;9.57;;
44102;SDS011;29769;42.178;24.742;2023-04-24T00:53:09;16.52;;;9.13;;
44102;SDS011;29769;42.178;24.742;2023-04-24T00:55:54;12.43;;;8.98;;
44102;SDS011;29769;42.178;24.742;2023-04-24T00:58:40;13.85;;;9.60;;
44102;SDS011;29769;42.178;24.742;2023-04-24T01:01:26;13.45;;;9.45;;
44102;SDS011;29769;42.178;24.742;2023-04-24T01:04:11;17.33;;;10.20;;
44102;SDS011;29769;42.178;24.742;2023-04-24T01:06:57;17.73;;;9.32;;
44102;SDS011;29769;42.178;24.742;2023-04-24T01:09:42;21.42;;;10.32;;
44102;SDS011;29769;42.178;24.742;2023-04-24T01:12:28;39.15;;;10.15;;
44102;SDS011;29769;42.178;24.742;2023-04-24T01:15:13;15.15;;;9.82;;
44102;SDS011;29769;42.178;24.742;2023-04-24T01:18:00;12.52;;;9.70;;
44102;SDS011;29769;42.178;24.742;2023-04-24T01:20:45;10.95;;;9.05;;
44102;SDS011;29769;42.178;24.742;2023-04-24T01:23:31;12.02;;;9.23;;
44102;SDS011;29769;42.178;24.742;2023-04-24T01:26:16;12.00;;;9.93;;
44102;SDS011;29769;42.178;24.742;2023-04-24T01:29:04;13.73;;;9.60;;
44102;SDS011;29769;42.178;24.742;2023-04-24T01:31:49;14.80;;;9.65;;
44102;SDS011;29769;42.178;24.742;2023-04-24T01:34:34;18.15;;;11.00;;
44102;SDS011;29769;42.178;24.742;2023-04-24T01:37:19;14.00;;;9.85;;
44102;SDS011;29769;42.178;24.742;2023-04-24T01:40:05;18.35;;;10.35;;
44102;SDS011;29769;42.178;24.742;2023-04-24T01:42:51;16.90;;;10.85;;
44102;SDS011;29769;42.178;24.742;2023-04-24T01:45:36;15.77;;;11.02;;
44102;SDS011;29769;42.178;24.742;2023-04-24T01:48:22;15.38;;;9.50;;
44102;SDS011;29769;42.178;24.742;2023-04-24T01:51:07;19.83;;;11.25;;
44102;SDS011;29769;42.178;24.742;2023-04-24T01:53:52;23.13;;;11.07;;
44102;SDS011;29769;42.178;24.742;2023-04-24T01:56:39;20.08;;;11.43;;
44102;SDS011;29769;42.178;24.742;2023-04-24T01:59:26;17.00;;;11.15;;
44102;SDS011;29769;42.178;24.742;2023-04-24T02:02:12;19.38;;;11.95;;
44102;SDS011;29769;42.178;24.742;2023-04-24T02:04:57;20.33;;;11.35;;
44102;SDS011;29769;42.178;24.742;2023-04-24T02:07:42;25.23;;;12.23;;
44102;SDS011;29769;42.178;24.742;2023-04-24T02:10:27;23.60;;;12.13;;
44102;SDS011;29769;42.178;24.742;2023-04-24T02:13:12;24.10;;;11.68;;
44102;SDS011;29769;42.178;24.742;2023-04-24T02:16:00;15.82;;;11.73;;
44102;SDS011;29769;42.178;24.742;2023-04-24T02:18:45;18.80;;;11.15;;
44102;SDS011;29769;42.178;24.742;2023-04-24T02:21:30;13.45;;;10.10;;
44102;SDS011;29769;42.178;24.742;2023-04-24T02:24:15;15.20;;;10.15;;
44102;SDS011;29769;42.178;24.742;2023-04-24T02:27:00;25.95;;;11.55;;
44102;SDS011;29769;42.178;24.742;2023-04-24T02:29:46;14.65;;;10.18;;
44102;SDS011;29769;42.178;24.742;2023-04-24T02:32:31;13.82;;;9.55;;
44102;SDS011;29769;42.178;24.742;2023-04-24T02:35:16;14.27;;;9.57;;
44102;SDS011;29769;42.178;24.742;2023-04-24T02:38:00;14.70;;;9.77;;
44102;SDS011;29769;42.178;24.742;2023-04-24T02:40:45;16.60;;;10.55;;
44102;SDS011;29769;42.178;24.742;2023-04-24T02:43:30;16.02;;;9.68;;
44102;SDS011;29769;42.178;24.742;2023-04-24T02:46:15;18.90;;;9.80;;
44102;SDS011;29769;42.178;24.742;2023-04-24T02:49:00;13.57;;;10.55;;
44102;SDS011;29769;42.178;24.742;2023-04-24T02:54:30;15.88;;;10.30;;
44102;SDS011;29769;42.178;24.742;2023-04-24T03:00:00;18.35;;;9.63;;
44102;SDS011;29769;42.178;24.742;2023-04-24T03:02:45;20.17;;;11.15;;
44102;SDS011;29769;42.178;24.742;2023-04-24T03:05:30;19.58;;;9.90;;
44102;SDS011;29769;42.178;24.742;2023-04-24T03:08:15;15.73;;;10.32;;
44102;SDS011;29769;42.178;24.742;2023-04-24T03:11:00;19.70;;;10.30;;
44102;SDS011;29769;42.178;24.742;2023-04-24T03:13:45;13.50;;;10.43;;
44102;SDS011;29769;42.178;24.742;2023-04-24T03:16:30;16.33;;;9.85;;
44102;SDS011;29769;42.178;24.742;2023-04-24T03:19:15;15.38;;;10.00;;
44102;SDS011;29769;42.178;24.742;2023-04-24T03:22:11;14.98;;;10.23;;
44102;SDS011;29769;42.178;24.742;2023-04-24T03:24:58;19.48;;;11.30;;
44102;SDS011;29769;42.178;24.742;2023-04-24T03:30:54;13.63;;;11.18;;
44102;SDS011;29769;42.178;24.742;2023-04-24T03:33:41;15.27;;;10.75;;
44102;SDS011;29769;42.178;24.742;2023-04-24T03:36:26;16.17;;;11.23;;
44102;SDS011;29769;42.178;24.742;2023-04-24T03:39:12;16.27;;;11.60;;
44102;SDS011;29769;42.178;24.742;2023-04-24T03:42:03;22.23;;;13.63;;
44102;SDS011;29769;42.178;24.742;2023-04-24T03:45:00;23.27;;;14.50;;
44102;SDS011;29769;42.178;24.742;2023-04-24T03:47:49;23.70;;;14.90;;
44102;SDS011;29769;42.178;24.742;2023-04-24T03:50:34;37.15;;;14.73;;
44102;SDS011;29769;42.178;24.742;2023-04-24T03:53:19;21.52;;;14.98;;
44102;SDS011;29769;42.178;24.742;2023-04-24T03:56:05;34.40;;;16.13;;
44102;SDS011;29769;42.178;24.742;2023-04-24T03:58:51;36.55;;;16.00;;
44102;SDS011;29769;42.178;24.742;2023-04-24T04:01:36;28.75;;;15.30;;
44102;SDS011;29769;42.178;24.742;2023-04-24T04:04:30;29.95;;;14.70;;
44102;SDS011;29769;42.178;24.742;2023-04-24T04:07:16;32.88;;;15.27;;
44102;SDS011;29769;42.178;24.742;2023-04-24T04:10:01;29.00;;;16.63;;
44102;SDS011;29769;42.178;24.742;2023-04-24T04:15:32;26.10;;;14.35;;
44102;SDS011;29769;42.178;24.742;2023-04-24T04:18:17;25.02;;;12.38;;
44102;SDS011;29769;42.178;24.742;2023-04-24T04:21:02;20.02;;;11.38;;
44102;SDS011;29769;42.178;24.742;2023-04-24T04:23:47;20.00;;;11.27;;
44102;SDS011;29769;42.178;24.742;2023-04-24T04:26:38;36.67;;;10.55;;
44102;SDS011;29769;42.178;24.742;2023-04-24T04:29:26;18.35;;;10.18;;
44102;SDS011;29769;42.178;24.742;2023-04-24T04:32:11;19.20;;;10.60;;
44102;SDS011;29769;42.178;24.742;2023-04-24T04:34:57;17.42;;;9.25;;
44102;SDS011;29769;42.178;24.742;2023-04-24T04:37:45;14.88;;;9.38;;
44102;SDS011;29769;42.178;24.742;2023-04-24T04:40:35;33.58;;;11.10;;
44102;SDS011;29769;42.178;24.742;2023-04-24T04:43:23;33.50;;;10.65;;
44102;SDS011;29769;42.178;24.742;2023-04-24T04:46:10;35.53;;;10.38;;
44102;SDS011;29769;42.178;24.742;2023-04-24T04:49:18;26.63;;;9.35;;
44102;SDS011;29769;42.178;24.742;2023-04-24T04:52:06;15.35;;;8.98;;
44102;SDS011;29769;42.178;24.742;2023-04-24T04:54:51;22.30;;;10.43;;
44102;SDS011;29769;42.178;24.742;2023-04-24T04:57:36;19.77;;;8.88;;
44102;SDS011;29769;42.178;24.742;2023-04-24T05:00:23;14.70;;;8.57;;
44102;SDS011;29769;42.178;24.742;2023-04-24T05:03:11;13.98;;;7.97;;
44102;SDS011;29769;42.178;24.742;2023-04-24T05:05:57;14.88;;;8.05;;
44102;SDS011;29769;42.178;24.742;2023-04-24T05:08:42;25.48;;;7.47;;
44102;SDS011;29769;42.178;24.742;2023-04-24T05:11:34;14.13;;;7.28;;
44102;SDS011;29769;42.178;24.742;2023-04-24T05:14:20;11.15;;;6.72;;
44102;SDS011;29769;42.178;24.742;2023-04-24T05:17:07;11.27;;;6.43;;
44102;SDS011;29769;42.178;24.742;2023-04-24T05:19:53;13.90;;;5.97;;
44102;SDS011;29769;42.178;24.742;2023-04-24T05:22:38;62.25;;;9.68;;
44102;SDS011;29769;42.178;24.742;2023-04-24T05:28:15;12.23;;;6.32;;
44102;SDS011;29769;42.178;24.742;2023-04-24T05:31:02;15.32;;;6.32;;
44102;SDS011;29769;42.178;24.742;2023-04-24T05:36:32;14.10;;;6.13;;
44102;SDS011;29769;42.178;24.742;2023-04-24T05:39:18;9.60;;;6.22;;
44102;SDS011;29769;42.178;24.742;2023-04-24T05:42:06;9.10;;;6.68;;
44102;SDS011;29769;42.178;24.742;2023-04-24T05:44:51;10.27;;;7.13;;
44102;SDS011;29769;42.178;24.742;2023-04-24T05:47:36;11.45;;;6.47;;
44102;SDS011;29769;42.178;24.742;2023-04-24T05:53:05;12.50;;;5.63;;
44102;SDS011;29769;42.178;24.742;2023-04-24T05:55:53;9.55;;;6.18;;
44102;SDS011;29769;42.178;24.742;2023-04-24T06:01:24;11.43;;;5.72;;
44102;SDS011;29769;42.178;24.742;2023-04-24T06:04:17;6.85;;;4.97;;
44102;SDS011;29769;42.178;24.742;2023-04-24T06:07:02;7.10;;;5.10;;
44102;SDS011;29769;42.178;24.742;2023-04-24T06:09:47;12.13;;;5.75;;
44102;SDS011;29769;42.178;24.742;2023-04-24T06:12:32;8.45;;;5.00;;
44102;SDS011;29769;42.178;24.742;2023-04-24T06:15:23;12.82;;;5.22;;
44102;SDS011;29769;42.178;24.742;2023-04-24T06:18:11;14.20;;;6.03;;
44102;SDS011;29769;42.178;24.742;2023-04-24T06:20:58;7.80;;;5.10;;
44102;SDS011;29769;42.178;24.742;2023-04-24T06:23:43;9.65;;;5.80;;
44102;SDS011;29769;42.178;24.742;2023-04-24T06:26:28;10.13;;;5.28;;
44102;SDS011;29769;42.178;24.742;2023-04-24T06:29:12;9.00;;;5.72;;
44102;SDS011;29769;42.178;24.742;2023-04-24T06:31:57;12.85;;;5.47;;
44102;SDS011;29769;42.178;24.742;2023-04-24T06:34:42;11.13;;;5.60;;
44102;SDS011;29769;42.178;24.742;2023-04-24T06:37:27;14.13;;;5.30;;
44102;SDS011;29769;42.178;24.742;2023-04-24T06:40:12;10.80;;;5.68;;
44102;SDS011;29769;42.178;24.742;2023-04-24T06:42:57;8.85;;;5.32;;
44102;SDS011;29769;42.178;24.742;2023-04-24T06:45:44;10.75;;;5.65;;
44102;SDS011;29769;42.178;24.742;2023-04-24T06:48:29;11.00;;;5.60;;
44102;SDS011;29769;42.178;24.742;2023-04-24T06:51:14;13.02;;;5.40;;
44102;SDS011;29769;42.178;24.742;2023-04-24T06:53:59;15.10;;;5.60;;
44102;SDS011;29769;42.178;24.742;2023-04-24T06:56:45;16.08;;;6.10;;
44102;SDS011;29769;42.178;24.742;2023-04-24T06:59:32;17.48;;;5.60;;
44102;SDS011;29769;42.178;24.742;2023-04-24T07:02:16;11.05;;;5.50;;
44102;SDS011;29769;42.178;24.742;2023-04-24T07:05:02;15.82;;;6.13;;
44102;SDS011;29769;42.178;24.742;2023-04-24T07:07:47;10.82;;;5.10;;
44102;SDS011;29769;42.178;24.742;2023-04-24T07:10:33;18.48;;;5.35;;
44102;SDS011;29769;42.178;24.742;2023-04-24T07:13:20;6.95;;;5.10;;
44102;SDS011;29769;42.178;24.742;2023-04-24T07:16:05;9.00;;;4.50;;
44102;SDS011;29769;42.178;24.742;2023-04-24T07:18:50;6.07;;;4.75;;
44102;SDS011;29769;42.178;24.742;2023-04-24T07:21:35;9.05;;;5.35;;
44102;SDS011;29769;42.178;24.742;2023-04-24T07:24:19;11.95;;;5.00;;
44102;SDS011;29769;42.178;24.742;2023-04-24T07:27:04;11.52;;;4.95;;
44102;SDS011;29769;42.178;24.742;2023-04-24T07:29:49;7.72;;;5.38;;
44102;SDS011;29769;42.178;24.742;2023-04-24T07:32:34;10.45;;;4.82;;
44102;SDS011;29769;42.178;24.742;2023-04-24T07:35:19;11.40;;;5.30;;
44102;SDS011;29769;42.178;24.742;2023-04-24T07:38:05;7.55;;;5.07;;
44102;SDS011;29769;42.178;24.742;2023-04-24T07:40:50;7.13;;;4.20;;
44102;SDS011;29769;42.178;24.742;2023-04-24T07:43:35;11.07;;;5.07;;
44102;SDS011;29769;42.178;24.742;2023-04-24T07:46:20;10.90;;;5.65;;
44102;SDS011;29769;42.178;24.742;2023-04-24T07:49:05;7.32;;;3.88;;
44102;SDS011;29769;42.178;24.742;2023-04-24T07:51:50;7.43;;;4.72;;
44102;SDS011;29769;42.178;24.742;2023-04-24T07:54:35;10.90;;;5.82;;
44102;SDS011;29769;42.178;24.742;2023-04-24T07:57:21;10.73;;;4.50;;
44102;SDS011;29769;42.178;24.742;2023-04-24T08:00:06;11.75;;;5.60;;
44102;SDS011;29769;42.178;24.742;2023-04-24T08:02:58;6.47;;;4.75;;
44102;SDS011;29769;42.178;24.742;2023-04-24T08:05:43;9.68;;;5.80;;
44102;SDS011;29769;42.178;24.742;2023-04-24T08:08:28;9.25;;;4.80;;
44102;SDS011;29769;42.178;24.742;2023-04-24T08:11:13;11.43;;;5.45;;
44102;SDS011;29769;42.178;24.742;2023-04-24T08:13:57;10.20;;;5.18;;
44102;SDS011;29769;42.178;24.742;2023-04-24T08:16:42;9.65;;;5.28;;
44102;SDS011;29769;42.178;24.742;2023-04-24T08:19:27;8.50;;;5.68;;
44102;SDS011;29769;42.178;24.742;2023-04-24T08:22:12;9.27;;;5.68;;
44102;SDS011;29769;42.178;24.742;2023-04-24T08:24:59;13.05;;;4.82;;
44102;SDS011;29769;42.178;24.742;2023-04-24T08:27:44;10.40;;;5.30;;
44102;SDS011;29769;42.178;24.742;2023-04-24T08:30:29;20.73;;;6.13;;
44102;SDS011;29769;42.178;24.742;2023-04-24T08:33:14;9.25;;;5.20;;
44102;SDS011;29769;42.178;24.742;2023-04-24T08:36:02;8.02;;;5.32;;
44102;SDS011;29769;42.178;24.742;2023-04-24T08:38:49;11.80;;;5.38;;
44102;SDS011;29769;42.178;24.742;2023-04-24T08:41:34;11.02;;;5.35;;
44102;SDS011;29769;42.178;24.742;2023-04-24T08:44:22;12.00;;;5.32;;
44102;SDS011;29769;42.178;24.742;2023-04-24T08:47:07;7.53;;;4.70;;
44102;SDS011;29769;42.178;24.742;2023-04-24T08:49:52;8.85;;;4.55;;
44102;SDS011;29769;42.178;24.742;2023-04-24T08:52:38;8.07;;;4.93;;
44102;SDS011;29769;42.178;24.742;2023-04-24T08:55:23;18.10;;;5.43;;
44102;SDS011;29769;42.178;24.742;2023-04-24T08:58:09;11.10;;;5.10;;
44102;SDS011;29769;42.178;24.742;2023-04-24T09:00:55;11.55;;;4.80;;
44102;SDS011;29769;42.178;24.742;2023-04-24T09:03:40;9.15;;;4.80;;
44102;SDS011;29769;42.178;24.742;2023-04-24T09:06:25;11.13;;;4.55;;
44102;SDS011;29769;42.178;24.742;2023-04-24T09:09:11;12.38;;;4.85;;
44102;SDS011;29769;42.178;24.742;2023-04-24T09:11:56;6.60;;;4.07;;
44102;SDS011;29769;42.178;24.742;2023-04-24T09:14:41;9.35;;;5.32;;
44102;SDS011;29769;42.178;24.742;2023-04-24T09:17:30;9.73;;;4.82;;
44102;SDS011;29769;42.178;24.742;2023-04-24T09:20:15;7.68;;;4.72;;
44102;SDS011;29769;42.178;24.742;2023-04-24T09:23:00;6.95;;;4.57;;
44102;SDS011;29769;42.178;24.742;2023-04-24T09:25:44;12.23;;;5.15;;
44102;SDS011;29769;42.178;24.742;2023-04-24T09:28:30;6.63;;;4.60;;
44102;SDS011;29769;42.178;24.742;2023-04-24T09:31:17;8.20;;;4.68;;
44102;SDS011;29769;42.178;24.742;2023-04-24T09:34:04;9.23;;;4.25;;
44102;SDS011;29769;42.178;24.742;2023-04-24T09:36:52;5.57;;;3.95;;
44102;SDS011;29769;42.178;24.742;2023-04-24T09:39:38;10.70;;;4.95;;
44102;SDS011;29769;42.178;24.742;2023-04-24T09:42:24;8.70;;;4.53;;
44102;SDS011;29769;42.178;24.742;2023-04-24T09:45:13;8.20;;;4.68;;
44102;SDS011;29769;42.178;24.742;2023-04-24T09:47:58;10.60;;;4.20;;
44102;SDS011;29769;42.178;24.742;2023-04-24T09:50:45;10.00;;;5.38;;
44102;SDS011;29769;42.178;24.742;2023-04-24T09:53:31;8.38;;;4.53;;
44102;SDS011;29769;42.178;24.742;2023-04-24T09:56:17;7.78;;;4.15;;
44102;SDS011;29769;42.178;24.742;2023-04-24T09:59:06;5.22;;;4.10;;
44102;SDS011;29769;42.178;24.742;2023-04-24T10:01:51;6.00;;;4.53;;
44102;SDS011;29769;42.178;24.742;2023-04-24T10:04:37;8.25;;;3.78;;
44102;SDS011;29769;42.178;24.742;2023-04-24T10:07:22;10.98;;;4.32;;
44102;SDS011;29769;42.178;24.742;2023-04-24T10:10:10;6.82;;;4.47;;
44102;SDS011;29769;42.178;24.742;2023-04-24T10:12:56;8.50;;;5.03;;
44102;SDS011;29769;42.178;24.742;2023-04-24T10:15:41;8.82;;;4.28;;
44102;SDS011;29769;42.178;24.742;2023-04-24T10:18:26;6.65;;;3.90;;
44102;SDS011;29769;42.178;24.742;2023-04-24T10:21:12;9.30;;;3.95;;
44102;SDS011;29769;42.178;24.742;2023-04-24T10:23:57;8.65;;;4.32;;
44102;SDS011;29769;42.178;24.742;2023-04-24T10:26:45;8.15;;;4.72;;
44102;SDS011;29769;42.178;24.742;2023-04-24T10:29:32;11.02;;;5.22;;
44102;SDS011;29769;42.178;24.742;2023-04-24T10:32:20;14.23;;;5.78;;
44102;SDS011;29769;42.178;24.742;2023-04-24T10:35:06;9.20;;;4.50;;
44102;SDS011;29769;42.178;24.742;2023-04-24T10:37:54;7.10;;;4.60;;
44102;SDS011;29769;42.178;24.742;2023-04-24T10:40:42;9.23;;;4.78;;
44102;SDS011;29769;42.178;24.742;2023-04-24T10:43:28;10.40;;;4.38;;
44102;SDS011;29769;42.178;24.742;2023-04-24T10:46:16;16.60;;;5.55;;
44102;SDS011;29769;42.178;24.742;2023-04-24T10:49:05;5.53;;;4.22;;
44102;SDS011;29769;42.178;24.742;2023-04-24T10:51:53;8.70;;;5.15;;
44102;SDS011;29769;42.178;24.742;2023-04-24T10:54:44;10.18;;;5.45;;
44102;SDS011;29769;42.178;24.742;2023-04-24T10:57:30;6.55;;;5.50;;
44102;SDS011;29769;42.178;24.742;2023-04-24T11:00:16;7.80;;;4.95;;
44102;SDS011;29769;42.178;24.742;2023-04-24T11:03:07;7.80;;;5.47;;
44102;SDS011;29769;42.178;24.742;2023-04-24T11:06:07;15.25;;;6.07;;
44102;SDS011;29769;42.178;24.742;2023-04-24T11:08:52;12.20;;;5.57;;
44102;SDS011;29769;42.178;24.742;2023-04-24T11:11:50;8.02;;;5.07;;
44102;SDS011;29769;42.178;24.742;2023-04-24T11:17:42;6.95;;;4.80;;
44102;SDS011;29769;42.178;24.742;2023-04-24T11:20:27;9.48;;;5.05;;
44102;SDS011;29769;42.178;24.742;2023-04-24T11:23:12;5.20;;;4.25;;
44102;SDS011;29769;42.178;24.742;2023-04-24T11:29:21;7.97;;;4.60;;
44102;SDS011;29769;42.178;24.742;2023-04-24T11:32:25;5.20;;;3.80;;
44102;SDS011;29769;42.178;24.742;2023-04-24T11:35:16;7.40;;;3.70;;
44102;SDS011;29769;42.178;24.742;2023-04-24T11:38:02;9.13;;;4.10;;
44102;SDS011;29769;42.178;24.742;2023-04-24T11:40:48;4.82;;;3.88;;
44102;SDS011;29769;42.178;24.742;2023-04-24T11:43:33;8.77;;;4.53;;
44102;SDS011;29769;42.178;24.742;2023-04-24T11:46:20;6.15;;;4.10;;
44102;SDS011;29769;42.178;24.742;2023-04-24T11:49:06;7.22;;;3.83;;
44102;SDS011;29769;42.178;24.742;2023-04-24T11:51:54;5.65;;;3.50;;
44102;SDS011;29769;42.178;24.742;2023-04-24T11:54:46;6.25;;;3.90;;
44102;SDS011;29769;42.178;24.742;2023-04-24T11:57:32;9.40;;;4.47;;
44102;SDS011;29769;42.178;24.742;2023-04-24T12:00:22;6.18;;;4.03;;
44102;SDS011;29769;42.178;24.742;2023-04-24T12:03:10;4.93;;;3.60;;
44102;SDS011;29769;42.178;24.742;2023-04-24T12:06:08;9.25;;;3.97;;
44102;SDS011;29769;42.178;24.742;2023-04-24T12:08:54;4.93;;;3.75;;
44102;SDS011;29769;42.178;24.742;2023-04-24T12:11:52;5.90;;;3.50;;
44102;SDS011;29769;42.178;24.742;2023-04-24T12:14:42;4.32;;;3.05;;
44102;SDS011;29769;42.178;24.742;2023-04-24T12:17:47;7.13;;;3.30;;
44102;SDS011;29769;42.178;24.742;2023-04-24T12:20:35;9.85;;;3.28;;
44102;SDS011;29769;42.178;24.742;2023-04-24T12:23:33;4.97;;;3.30;;
44102;SDS011;29769;42.178;24.742;2023-04-24T12:26:21;7.65;;;3.50;;
44102;SDS011;29769;42.178;24.742;2023-04-24T12:29:07;5.78;;;3.80;;
44102;SDS011;29769;42.178;24.742;2023-04-24T12:31:53;7.93;;;3.65;;
44102;SDS011;29769;42.178;24.742;2023-04-24T12:34:38;7.63;;;3.95;;
44102;SDS011;29769;42.178;24.742;2023-04-24T12:37:26;6.82;;;3.53;;
44102;SDS011;29769;42.178;24.742;2023-04-24T12:40:18;4.05;;;3.58;;
44102;SDS011;29769;42.178;24.742;2023-04-24T12:43:17;8.70;;;3.60;;
44102;SDS011;29769;42.178;24.742;2023-04-24T12:46:03;7.05;;;3.30;;
44102;SDS011;29769;42.178;24.742;2023-04-24T12:48:48;6.43;;;3.70;;
44102;SDS011;29769;42.178;24.742;2023-04-24T12:51:33;9.70;;;3.33;;
44102;SDS011;29769;42.178;24.742;2023-04-24T12:54:18;19.25;;;3.80;;
44102;SDS011;29769;42.178;24.742;2023-04-24T12:57:03;5.75;;;3.03;;
44102;SDS011;29769;42.178;24.742;2023-04-24T12:59:49;5.55;;;3.00;;
44102;SDS011;29769;42.178;24.742;2023-04-24T13:02:34;7.53;;;3.55;;
44102;SDS011;29769;42.178;24.742;2023-04-24T13:05:20;3.60;;;3.30;;
44102;SDS011;29769;42.178;24.742;2023-04-24T13:08:04;5.57;;;3.30;;
44102;SDS011;29769;42.178;24.742;2023-04-24T13:10:49;5.00;;;3.33;;
44102;SDS011;29769;42.178;24.742;2023-04-24T13:13:36;4.75;;;2.88;;
44102;SDS011;29769;42.178;24.742;2023-04-24T13:16:21;4.32;;;3.10;;
44102;SDS011;29769;42.178;24.742;2023-04-24T13:19:07;4.25;;;2.88;;
44102;SDS011;29769;42.178;24.742;2023-04-24T13:21:52;7.93;;;3.45;;
44102;SDS011;29769;42.178;24.742;2023-04-24T13:24:40;5.53;;;3.50;;
44102;SDS011;29769;42.178;24.742;2023-04-24T13:27:25;8.82;;;3.40;;
44102;SDS011;29769;42.178;24.742;2023-04-24T13:30:11;5.57;;;3.50;;
44102;SDS011;29769;42.178;24.742;2023-04-24T13:32:56;15.63;;;4.03;;
44102;SDS011;29769;42.178;24.742;2023-04-24T13:35:41;15.90;;;4.00;;
44102;SDS011;29769;42.178;24.742;2023-04-24T13:38:26;4.85;;;3.28;;
44102;SDS011;29769;42.178;24.742;2023-04-24T13:41:11;7.90;;;3.92;;
44102;SDS011;29769;42.178;24.742;2023-04-24T13:43:56;7.72;;;3.67;;
44102;SDS011;29769;42.178;24.742;2023-04-24T13:46:41;3.78;;;2.97;;
44102;SDS011;29769;42.178;24.742;2023-04-24T13:49:28;9.48;;;3.17;;
44102;SDS011;29769;42.178;24.742;2023-04-24T13:52:13;5.65;;;3.53;;
44102;SDS011;29769;42.178;24.742;2023-04-24T13:54:59;5.90;;;3.28;;
44102;SDS011;29769;42.178;24.742;2023-04-24T13:57:44;5.35;;;3.20;;
44102;SDS011;29769;42.178;24.742;2023-04-24T14:00:29;14.75;;;3.70;;
44102;SDS011;29769;42.178;24.742;2023-04-24T14:03:13;6.18;;;3.60;;
44102;SDS011;29769;42.178;24.742;2023-04-24T14:05:58;7.28;;;3.45;;
44102;SDS011;29769;42.178;24.742;2023-04-24T14:08:43;5.97;;;3.00;;
44102;SDS011;29769;42.178;24.742;2023-04-24T14:11:28;6.47;;;3.20;;
44102;SDS011;29769;42.178;24.742;2023-04-24T14:14:13;6.00;;;3.30;;
44102;SDS011;29769;42.178;24.742;2023-04-24T14:16:58;3.42;;;3.13;;
44102;SDS011;29769;42.178;24.742;2023-04-24T14:19:43;8.98;;;3.60;;
44102;SDS011;29769;42.178;24.742;2023-04-24T14:22:28;5.82;;;3.78;;
44102;SDS011;29769;42.178;24.742;2023-04-24T14:25:13;6.15;;;3.20;;
44102;SDS011;29769;42.178;24.742;2023-04-24T14:28:00;6.60;;;3.60;;
44102;SDS011;29769;42.178;24.742;2023-04-24T14:30:46;5.35;;;3.40;;
44102;SDS011;29769;42.178;24.742;2023-04-24T14:33:31;3.33;;;3.00;;
44102;SDS011;29769;42.178;24.742;2023-04-24T14:36:16;5.43;;;4.05;;
44102;SDS011;29769;42.178;24.742;2023-04-24T14:39:01;4.82;;;3.88;;
44102;SDS011;29769;42.178;24.742;2023-04-24T14:41:50;11.85;;;3.63;;
44102;SDS011;29769;42.178;24.742;2023-04-24T14:44:35;6.80;;;3.42;;
44102;SDS011;29769;42.178;24.742;2023-04-24T14:47:20;4.78;;;3.25;;
44102;SDS011;29769;42.178;24.742;2023-04-24T14:50:06;10.75;;;3.60;;
44102;SDS011;29769;42.178;24.742;2023-04-24T14:52:52;3.42;;;3.13;;
44102;SDS011;29769;42.178;24.742;2023-04-24T14:55:37;4.03;;;3.33;;
44102;SDS011;29769;42.178;24.742;2023-04-24T14:58:22;3.80;;;3.20;;
44102;SDS011;29769;42.178;24.742;2023-04-24T15:01:07;4.90;;;3.33;;
44102;SDS011;29769;42.178;24.742;2023-04-24T15:03:52;4.00;;;3.00;;
44102;SDS011;29769;42.178;24.742;2023-04-24T15:06:37;4.55;;;3.40;;
44102;SDS011;29769;42.178;24.742;2023-04-24T15:09:22;23.48;;;4.80;;
44102;SDS011;29769;42.178;24.742;2023-04-24T15:12:08;7.10;;;3.78;;
44102;SDS011;29769;42.178;24.742;2023-04-24T15:14:54;20.73;;;3.78;;
44102;SDS011;29769;42.178;24.742;2023-04-24T15:17:39;9.00;;;3.75;;
44102;SDS011;29769;42.178;24.742;2023-04-24T15:20:24;6.75;;;3.30;;
44102;SDS011;29769;42.178;24.742;2023-04-24T15:23:08;6.22;;;3.20;;
44102;SDS011;29769;42.178;24.742;2023-04-24T15:25:53;18.98;;;3.50;;
44102;SDS011;29769;42.178;24.742;2023-04-24T15:28:39;11.07;;;3.45;;
44102;SDS011;29769;42.178;24.742;2023-04-24T15:31:24;7.38;;;3.47;;
44102;SDS011;29769;42.178;24.742;2023-04-24T15:34:08;6.28;;;3.75;;
44102;SDS011;29769;42.178;24.742;2023-04-24T15:36:54;6.72;;;3.10;;
44102;SDS011;29769;42.178;24.742;2023-04-24T15:39:39;6.78;;;3.63;;
44102;SDS011;29769;42.178;24.742;2023-04-24T15:42:24;11.25;;;5.55;;
44102;SDS011;29769;42.178;24.742;2023-04-24T15:45:09;15.05;;;4.30;;
44102;SDS011;29769;42.178;24.742;2023-04-24T15:47:54;4.30;;;3.40;;
44102;SDS011;29769;42.178;24.742;2023-04-24T15:50:40;5.35;;;3.50;;
44102;SDS011;29769;42.178;24.742;2023-04-24T15:53:25;7.13;;;3.38;;
44102;SDS011;29769;42.178;24.742;2023-04-24T15:56:12;4.00;;;3.40;;
44102;SDS011;29769;42.178;24.742;2023-04-24T15:58:57;8.57;;;3.90;;
44102;SDS011;29769;42.178;24.742;2023-04-24T16:01:41;4.47;;;3.00;;
44102;SDS011;29769;42.178;24.742;2023-04-24T16:04:27;6.82;;;3.22;;
44102;SDS011;29769;42.178;24.742;2023-04-24T16:07:12;4.35;;;3.58;;
44102;SDS011;29769;42.178;24.742;2023-04-24T16:09:58;3.97;;;3.38;;
44102;SDS011;29769;42.178;24.742;2023-04-24T16:12:42;6.18;;;3.55;;
44102;SDS011;29769;42.178;24.742;2023-04-24T16:15:27;6.47;;;4.15;;
44102;SDS011;29769;42.178;24.742;2023-04-24T16:18:13;5.72;;;3.63;;
44102;SDS011;29769;42.178;24.742;2023-04-24T16:20:57;9.07;;;4.35;;
44102;SDS011;29769;42.178;24.742;2023-04-24T16:23:43;5.18;;;4.13;;
44102;SDS011;29769;42.178;24.742;2023-04-24T16:26:28;6.43;;;4.35;;
44102;SDS011;29769;42.178;24.742;2023-04-24T16:29:13;8.80;;;4.72;;
44102;SDS011;29769;42.178;24.742;2023-04-24T16:31:59;16.92;;;5.15;;
44102;SDS011;29769;42.178;24.742;2023-04-24T16:34:44;7.32;;;3.95;;
44102;SDS011;29769;42.178;24.742;2023-04-24T16:37:29;7.55;;;4.22;;
44102;SDS011;29769;42.178;24.742;2023-04-24T16:40:14;7.85;;;4.00;;
44102;SDS011;29769;42.178;24.742;2023-04-24T16:43:00;6.55;;;3.83;;
44102;SDS011;29769;42.178;24.742;2023-04-24T16:45:45;15.90;;;4.78;;
44102;SDS011;29769;42.178;24.742;2023-04-24T16:48:31;7.72;;;4.07;;
44102;SDS011;29769;42.178;24.742;2023-04-24T16:51:17;5.68;;;4.40;;